Time;durP1;ratioP1;P1;durP2;ratioP2;P2;SDS_P1;SDS_P2;PMS_P1;PMS_P2;Temp;Humidity;BMP_temperature;BMP_pressure;BME280_temperature;BME280_humidity;BME280_pressure;Samples;Min_cycle;Max_cycle;Signal;HPM_P1;HPM_P2
2022/05/08 00:02:16;;;;;;;11.63;6.55;;;12.90;99.90;;;;;;5056323;28;20032;-52
2022/05/08 00:04:42;;;;;;;9.00;6.35;;;12.90;99.90;;;;;;5074063;28;20070;-53
2022/05/08 00:07:08;;;;;;;12.80;7.07;;;12.90;99.90;;;;;;5056275;28;20028;-55
2022/05/08 00:09:33;;;;;;;8.05;6.13;;;12.90;99.90;;;;;;5073581;28;20066;-50
2022/05/08 00:11:59;;;;;;;9.10;6.18;;;13.10;99.90;;;;;;5056116;28;20050;-53
2022/05/08 00:14:25;;;;;;;14.45;6.95;;;13.10;99.90;;;;;;5055666;28;20032;-53
2022/05/08 00:16:51;;;;;;;10.38;6.13;;;13.10;99.90;;;;;;5073466;28;20028;-55
2022/05/08 00:19:17;;;;;;;9.10;6.22;;;12.90;99.90;;;;;;5073529;28;20112;-56
2022/05/08 00:21:43;;;;;;;10.90;7.18;;;12.90;99.90;;;;;;5055889;28;20085;-54
2022/05/08 00:24:09;;;;;;;10.43;7.03;;;12.80;99.90;;;;;;5073549;28;20021;-52
2022/05/08 00:26:35;;;;;;;10.05;6.45;;;12.80;99.90;;;;;;5055609;28;20016;-50
2022/05/08 00:29:01;;;;;;;7.28;5.85;;;12.70;99.90;;;;;;5073616;28;20024;-52
2022/05/08 00:31:27;;;;;;;9.75;6.25;;;12.60;99.90;;;;;;5056256;28;20131;-55
2022/05/08 00:33:53;;;;;;;8.43;6.50;;;12.50;99.90;;;;;;5055740;28;20032;-55
2022/05/08 00:36:19;;;;;;;7.93;6.05;;;12.50;99.90;;;;;;5056291;28;20027;-56
2022/05/08 00:38:45;;;;;;;13.38;7.03;;;12.50;99.90;;;;;;5073306;28;20020;-53
2022/05/08 00:41:11;;;;;;;8.40;5.90;;;12.50;99.90;;;;;;5073205;28;20028;-55
2022/05/08 00:43:38;;;;;;;8.27;5.60;;;12.50;99.90;;;;;;5073381;28;20062;-52
2022/05/08 00:46:12;;;;;;;10.80;6.43;;;12.40;99.90;;;;;;5055238;28;20025;-50
2022/05/08 00:48:39;;;;;;;7.50;5.80;;;12.40;99.90;;;;;;5055152;28;20166;-50
2022/05/08 00:51:10;;;;;;;8.20;5.63;;;12.40;99.90;;;;;;5055411;28;20478;-50
2022/05/08 00:53:42;;;;;;;12.43;7.10;;;12.40;99.90;;;;;;5055072;28;20048;-51
2022/05/08 00:56:09;;;;;;;10.63;6.70;;;12.40;99.90;;;;;;5073048;28;20112;-50
2022/05/08 00:58:37;;;;;;;7.38;6.20;;;12.30;99.90;;;;;;5072875;28;20063;-51
2022/05/08 01:01:03;;;;;;;9.07;6.47;;;12.30;99.90;;;;;;5073632;28;20035;-50
2022/05/08 01:03:29;;;;;;;13.98;6.40;;;12.30;99.90;;;;;;5073324;28;20021;-50
2022/05/08 01:05:56;;;;;;;10.82;6.13;;;12.30;99.90;;;;;;5072931;28;20489;-51
2022/05/08 01:08:23;;;;;;;9.77;6.60;;;12.20;99.90;;;;;;5054910;28;20029;-52
2022/05/08 01:10:49;;;;;;;10.95;6.72;;;12.20;99.90;;;;;;5054988;28;20036;-52
2022/05/08 01:13:15;;;;;;;10.20;6.72;;;12.10;99.90;;;;;;5072921;28;20428;-50
2022/05/08 01:15:43;;;;;;;12.30;7.15;;;12.10;99.90;;;;;;5072880;28;20031;-50
2022/05/08 01:18:09;;;;;;;8.10;6.03;;;12.00;99.90;;;;;;5054731;28;20024;-52
2022/05/08 01:20:35;;;;;;;7.97;6.22;;;12.00;99.90;;;;;;5054749;28;20017;-50
2022/05/08 01:23:05;;;;;;;10.52;7.10;;;12.00;99.90;;;;;;5054710;28;20044;-51
2022/05/08 01:25:34;;;;;;;9.40;6.35;;;12.00;99.90;;;;;;5054751;28;20025;-52
2022/05/08 01:28:03;;;;;;;13.75;6.28;;;11.90;99.90;;;;;;5054728;28;20550;-54
2022/05/08 01:30:29;;;;;;;13.10;6.72;;;11.90;99.90;;;;;;5054527;28;20052;-51
2022/05/08 01:32:57;;;;;;;11.50;6.47;;;11.90;99.90;;;;;;5054819;28;20024;-53
2022/05/08 01:35:24;;;;;;;11.15;7.32;;;11.90;99.90;;;;;;5072586;28;20044;-53
2022/05/08 01:37:50;;;;;;;10.05;6.75;;;11.80;99.90;;;;;;5072517;28;20056;-56
2022/05/08 01:40:17;;;;;;;11.43;6.90;;;11.80;99.90;;;;;;5054747;28;20059;-52
2022/05/08 01:42:44;;;;;;;13.00;7.03;;;11.70;99.90;;;;;;5055124;28;20025;-50
2022/05/08 01:45:11;;;;;;;9.52;6.53;;;11.70;99.90;;;;;;5054658;28;20055;-53
2022/05/08 01:50:21;;;;;;;13.88;6.90;;;11.70;99.90;;;;;;5073040;28;20119;-50
2022/05/08 01:52:47;;;;;;;10.80;7.10;;;11.60;99.90;;;;;;5072380;28;20064;-55
2022/05/08 01:55:13;;;;;;;10.55;6.72;;;11.60;99.90;;;;;;5073940;28;20052;-52
2022/05/08 01:57:38;;;;;;;9.65;6.35;;;11.60;99.90;;;;;;5076128;28;20028;-52
2022/05/08 02:00:05;;;;;;;7.68;6.03;;;11.60;99.90;;;;;;5076535;28;20133;-52
2022/05/08 02:02:31;;;;;;;15.13;7.03;;;11.50;99.90;;;;;;5058253;28;20020;-54
2022/05/08 02:04:57;;;;;;;9.15;6.70;;;11.50;99.90;;;;;;5058166;28;20383;-54
2022/05/08 02:07:23;;;;;;;10.80;7.30;;;11.50;99.90;;;;;;5059233;28;20031;-55
2022/05/08 02:09:49;;;;;;;9.63;6.57;;;11.40;99.90;;;;;;5058035;28;20032;-55
2022/05/08 02:12:14;;;;;;;11.15;7.13;;;11.40;99.90;;;;;;5075969;28;20025;-54
2022/05/08 02:14:43;;;;;;;11.95;7.78;;;11.40;99.90;;;;;;5057976;28;20031;-55
2022/05/08 02:17:09;;;;;;;11.63;6.75;;;11.30;99.90;;;;;;5058003;28;20028;-54
2022/05/08 02:19:34;;;;;;;10.75;6.72;;;11.30;99.90;;;;;;5058727;28;20040;-54
2022/05/08 02:22:00;;;;;;;10.13;7.07;;;11.30;99.90;;;;;;5075945;28;20031;-51
2022/05/08 02:24:26;;;;;;;9.35;6.22;;;11.30;99.90;;;;;;5058729;28;20023;-51
2022/05/08 02:26:51;;;;;;;20.00;7.63;;;11.40;99.90;;;;;;5075749;28;20062;-52
2022/05/08 02:29:18;;;;;;;10.95;7.22;;;11.30;99.90;;;;;;5057653;28;20063;-50
2022/05/08 02:31:44;;;;;;;13.73;7.75;;;11.30;99.90;;;;;;5057805;28;20032;-51
2022/05/08 02:34:09;;;;;;;12.27;7.15;;;11.30;99.90;;;;;;5057950;28;20078;-51
2022/05/08 02:36:35;;;;;;;11.98;7.32;;;11.20;99.90;;;;;;5057754;28;20075;-50
2022/05/08 02:39:00;;;;;;;10.15;6.82;;;11.20;99.90;;;;;;5057677;28;20119;-51
2022/05/08 02:41:26;;;;;;;11.82;7.45;;;11.20;99.90;;;;;;5075520;28;20104;-50
2022/05/08 02:43:52;;;;;;;10.55;7.30;;;11.20;99.90;;;;;;5075715;28;20032;-50
2022/05/08 02:46:17;;;;;;;11.88;7.38;;;11.20;99.90;;;;;;5057429;28;20123;-52
2022/05/08 02:48:43;;;;;;;14.60;7.25;;;11.10;99.90;;;;;;5075380;28;20103;-53
2022/05/08 02:51:09;;;;;;;10.02;7.57;;;11.10;99.90;;;;;;5058055;28;20032;-51
2022/05/08 02:53:34;;;;;;;12.20;6.90;;;11.10;99.90;;;;;;5057272;28;20024;-50
2022/05/08 02:58:44;;;;;;;15.98;7.80;;;11.10;99.90;;;;;;5075100;28;20032;-52
2022/05/08 03:01:10;;;;;;;11.68;7.25;;;11.10;99.90;;;;;;5057162;28;20012;-50
2022/05/08 03:03:36;;;;;;;11.73;7.45;;;11.10;99.90;;;;;;5057579;28;20077;-50
2022/05/08 03:06:02;;;;;;;11.82;7.03;;;11.00;99.90;;;;;;5074926;28;20028;-53
2022/05/08 03:08:27;;;;;;;10.75;6.97;;;11.00;99.90;;;;;;5074919;28;20024;-56
2022/05/08 03:13:39;;;;;;;9.52;6.90;;;10.90;99.90;;;;;;5075422;28;20500;-53
2022/05/08 03:16:06;;;;;;;13.93;7.10;;;10.90;99.90;;;;;;5074809;28;20028;-52
2022/05/08 03:18:34;;;;;;;9.80;6.80;;;11.00;99.90;;;;;;5056567;28;20033;-52
2022/05/08 03:21:00;;;;;;;11.30;7.18;;;11.00;99.90;;;;;;5075027;28;20052;-55
2022/05/08 03:23:27;;;;;;;11.73;7.53;;;11.00;99.90;;;;;;5074589;28;20020;-52
2022/05/08 03:25:52;;;;;;;12.63;7.50;;;11.10;99.90;;;;;;5056612;28;20092;-53
2022/05/08 03:28:18;;;;;;;11.65;7.32;;;11.10;99.90;;;;;;5074777;28;20063;-55
2022/05/08 03:30:44;;;;;;;13.45;7.50;;;11.10;99.90;;;;;;5056759;28;20031;-52
2022/05/08 03:33:10;;;;;;;10.68;7.15;;;11.20;99.90;;;;;;5074477;28;20436;-54
2022/05/08 03:35:37;;;;;;;15.30;7.55;;;11.20;99.90;;;;;;5057108;28;20025;-55
2022/05/08 03:38:03;;;;;;;12.57;8.18;;;11.20;99.90;;;;;;5056374;28;20081;-56
2022/05/08 03:40:29;;;;;;;15.63;9.23;;;11.30;99.90;;;;;;5056307;28;20021;-52
2022/05/08 03:42:55;;;;;;;15.50;8.18;;;11.30;99.90;;;;;;5056737;28;20351;-51
2022/05/08 03:45:21;;;;;;;15.80;8.82;;;11.40;99.90;;;;;;5057062;28;20044;-55
2022/05/08 03:47:53;;;;;;;18.60;9.73;;;11.40;99.90;;;;;;5056565;28;20029;-52
2022/05/08 03:50:22;;;;;;;14.40;8.85;;;11.50;99.90;;;;;;5056111;28;20024;-52
2022/05/08 03:52:48;;;;;;;14.73;8.68;;;11.50;99.90;;;;;;5056118;28;20025;-51
2022/05/08 03:55:18;;;;;;;16.35;9.98;;;11.50;99.90;;;;;;5074056;28;20031;-50
2022/05/08 03:57:44;;;;;;;14.38;8.65;;;11.50;99.90;;;;;;5055973;28;20031;-49
2022/05/08 04:00:11;;;;;;;13.43;9.07;;;11.50;99.90;;;;;;5073873;28;20025;-51
2022/05/08 04:02:37;;;;;;;15.82;8.10;;;11.40;99.90;;;;;;5056090;28;20020;-50
2022/05/08 04:05:03;;;;;;;13.65;8.68;;;11.30;99.90;;;;;;5074192;28;20027;-52
2022/05/08 04:07:30;;;;;;;13.73;8.48;;;11.20;99.90;;;;;;5055925;28;20025;-50
2022/05/08 04:09:56;;;;;;;13.30;8.20;;;11.20;99.90;;;;;;5073551;28;20024;-52
2022/05/08 04:12:21;;;;;;;13.48;8.05;;;11.10;99.90;;;;;;5074029;28;20047;-50
2022/05/08 04:14:47;;;;;;;12.32;8.07;;;11.10;99.90;;;;;;5056020;28;20028;-52
2022/05/08 04:17:13;;;;;;;14.57;7.82;;;11.10;99.90;;;;;;5055149;28;20028;-51
2022/05/08 04:19:39;;;;;;;15.48;8.75;;;11.10;99.90;;;;;;5073786;28;20044;-50
2022/05/08 04:24:49;;;;;;;13.80;8.18;;;11.10;99.90;;;;;;5074389;28;20035;-52
2022/05/08 04:27:15;;;;;;;14.45;8.43;;;11.10;99.90;;;;;;5073985;28;20029;-52
2022/05/08 04:29:40;;;;;;;12.75;7.25;;;11.20;99.90;;;;;;5073339;28;20024;-52
2022/05/08 04:32:06;;;;;;;10.95;7.15;;;11.20;99.90;;;;;;5055663;28;20028;-50
2022/05/08 04:34:32;;;;;;;12.15;8.00;;;11.30;99.90;;;;;;5073588;28;20035;-52
2022/05/08 04:36:58;;;;;;;12.10;7.45;;;11.30;99.90;;;;;;5073462;28;20032;-51
2022/05/08 04:39:24;;;;;;;11.45;7.90;;;11.40;99.90;;;;;;5056212;28;20016;-53
2022/05/08 04:41:49;;;;;;;13.63;7.90;;;11.50;99.90;;;;;;5055815;28;20025;-51
2022/05/08 04:44:15;;;;;;;13.90;8.27;;;11.50;99.90;;;;;;5055838;28;20028;-52
2022/05/08 04:46:41;;;;;;;12.60;8.27;;;11.50;99.90;;;;;;5055520;28;20055;-54
2022/05/08 04:49:06;;;;;;;12.45;8.50;;;11.60;99.90;;;;;;5073450;28;20024;-53
2022/05/08 04:51:32;;;;;;;13.95;8.52;;;11.70;99.90;;;;;;5073800;28;20056;-50
2022/05/08 04:53:57;;;;;;;12.13;8.23;;;11.70;99.90;;;;;;5073839;28;20021;-53
2022/05/08 04:56:23;;;;;;;15.93;9.07;;;11.80;99.90;;;;;;5055505;28;20074;-50
2022/05/08 04:58:49;;;;;;;13.85;8.30;;;11.80;99.90;;;;;;5055498;28;20123;-50
2022/05/08 05:01:14;;;;;;;17.15;8.25;;;11.80;99.90;;;;;;5073173;28;20025;-54
2022/05/08 05:03:41;;;;;;;14.35;7.85;;;11.90;99.90;;;;;;5055305;28;20054;-50
2022/05/08 05:06:07;;;;;;;15.27;8.60;;;11.90;99.90;;;;;;5073207;28;20048;-54
2022/05/08 05:08:33;;;;;;;18.05;8.13;;;12.00;99.90;;;;;;5055710;28;20024;-55
2022/05/08 05:10:59;;;;;;;15.05;7.80;;;12.20;99.90;;;;;;5073478;28;20029;-55
2022/05/08 05:13:25;;;;;;;16.65;8.73;;;12.30;99.90;;;;;;5055904;28;20059;-54
2022/05/08 05:15:51;;;;;;;16.77;9.70;;;12.50;99.90;;;;;;5073103;28;20064;-52
2022/05/08 05:18:17;;;;;;;16.27;9.23;;;12.50;99.90;;;;;;5072900;28;20046;-53
2022/05/08 05:20:42;;;;;;;15.52;8.95;;;12.60;99.90;;;;;;5055211;28;20025;-51
2022/05/08 05:23:08;;;;;;;14.45;9.35;;;12.70;99.90;;;;;;5055101;28;20047;-50
2022/05/08 05:25:34;;;;;;;16.30;9.85;;;12.80;99.90;;;;;;5055452;28;20044;-50
2022/05/08 05:28:00;;;;;;;15.55;8.05;;;12.90;99.90;;;;;;5055734;28;20033;-50
2022/05/08 05:30:25;;;;;;;19.63;11.77;;;13.10;99.90;;;;;;5057962;28;20052;-50
2022/05/08 05:32:51;;;;;;;18.48;10.50;;;13.30;99.90;;;;;;5059125;28;20021;-51
2022/05/08 05:35:16;;;;;;;16.90;9.68;;;13.50;99.90;;;;;;5077059;28;20029;-51
2022/05/08 05:37:42;;;;;;;18.65;10.30;;;13.60;99.90;;;;;;5059482;28;20029;-50
2022/05/08 05:40:08;;;;;;;20.58;11.30;;;13.70;99.90;;;;;;5060039;28;20589;-50
2022/05/08 05:42:34;;;;;;;19.05;10.45;;;13.90;99.90;;;;;;5059060;28;20431;-51
2022/05/08 05:45:00;;;;;;;18.70;11.02;;;14.10;99.90;;;;;;5059354;28;20067;-50
2022/05/08 05:50:22;;;;;;;14.93;8.45;;;14.60;99.90;;;;;;5063593;28;20037;-52
2022/05/08 05:52:49;;;;;;;14.50;9.65;;;14.90;99.90;;;;;;5076741;28;20028;-51
2022/05/08 05:55:16;;;;;;;18.75;9.30;;;15.30;99.90;;;;;;5076683;28;20111;-51
2022/05/08 05:57:42;;;;;;;16.35;9.50;;;15.60;99.90;;;;;;5076509;28;20025;-53
2022/05/08 06:00:10;;;;;;;18.13;10.68;;;16.10;99.90;;;;;;5058538;28;20162;-50
2022/05/08 06:02:37;;;;;;;10.05;7.60;;;16.80;99.90;;;;;;5076795;28;20020;-49
2022/05/08 06:05:04;;;;;;;14.13;8.70;;;17.30;99.90;;;;;;5076516;28;20017;-53
2022/05/08 06:07:29;;;;;;;16.85;10.05;;;17.80;99.90;;;;;;5076434;28;20492;-52
2022/05/08 06:09:55;;;;;;;15.52;10.10;;;18.10;99.90;;;;;;5058505;28;20020;-49
2022/05/08 06:12:20;;;;;;;12.82;9.23;;;18.20;99.90;;;;;;5058572;28;20062;-48
2022/05/08 06:14:46;;;;;;;16.20;10.48;;;18.10;99.90;;;;;;5076379;28;20078;-50
2022/05/08 06:17:13;;;;;;;19.98;10.60;;;17.60;99.90;;;;;;5058262;28;20123;-53
2022/05/08 06:19:39;;;;;;;17.52;9.32;;;17.30;99.90;;;;;;5058219;28;20024;-51
2022/05/08 06:22:04;;;;;;;16.70;10.35;;;17.60;99.90;;;;;;5076235;28;20031;-55
2022/05/08 06:24:30;;;;;;;16.02;9.82;;;17.90;99.90;;;;;;5058188;28;20017;-54
2022/05/08 06:26:56;;;;;;;15.55;9.90;;;17.80;99.90;;;;;;5076078;28;20024;-50
2022/05/08 06:29:23;;;;;;;12.20;8.15;;;18.40;99.90;;;;;;5058041;28;20030;-49
2022/05/08 06:31:51;;;;;;;14.63;8.90;;;19.30;99.90;;;;;;5076309;28;20060;-51
2022/05/08 06:34:17;;;;;;;12.02;8.98;;;19.60;99.90;;;;;;5058264;28;20035;-52
2022/05/08 06:36:44;;;;;;;13.65;8.73;;;20.20;99.90;;;;;;5057823;28;20039;-50
2022/05/08 06:39:10;;;;;;;13.13;9.00;;;20.90;99.90;;;;;;5075768;28;20528;-51
2022/05/08 06:41:36;;;;;;;12.18;7.55;;;21.60;99.90;;;;;;5057186;28;20016;-54
2022/05/08 06:44:02;;;;;;;10.18;6.47;;;22.40;99.90;;;;;;5058705;28;20123;-57
2022/05/08 06:46:31;;;;;;;12.25;7.45;;;22.90;99.90;;;;;;5057920;28;20043;-52
2022/05/08 06:49:00;;;;;;;10.90;7.57;;;23.40;99.90;;;;;;5058435;28;20047;-52
2022/05/08 06:51:26;;;;;;;11.10;7.40;;;23.80;99.90;;;;;;5058554;28;20066;-56
2022/05/08 06:53:52;;;;;;;8.43;6.20;;;24.30;99.90;;;;;;5057625;28;20109;-56
2022/05/08 06:56:18;;;;;;;9.80;7.07;;;25.00;99.90;;;;;;5057824;28;20025;-50
2022/05/08 07:01:38;;;;;;;15.57;8.63;;;24.80;99.90;;;;;;5075613;28;20032;-56
2022/05/08 07:04:08;;;;;;;8.65;6.88;;;25.40;99.90;;;;;;5075449;28;20021;-56
2022/05/08 07:06:35;;;;;;;11.20;8.15;;;25.40;99.90;;;;;;5057524;28;20024;-54
2022/05/08 07:09:01;;;;;;;10.25;8.32;;;25.50;99.90;;;;;;5057244;28;20020;-56
2022/05/08 07:11:27;;;;;;;7.57;5.57;;;25.70;99.90;;;;;;5057680;28;20025;-52
2022/05/08 07:13:52;;;;;;;9.43;7.32;;;25.70;99.90;;;;;;5059068;28;20087;-51
2022/05/08 07:16:18;;;;;;;13.32;7.47;;;25.80;99.90;;;;;;5055420;28;20079;-54
2022/05/08 07:18:44;;;;;;;11.02;9.25;;;25.10;99.90;;;;;;5055097;28;20025;-53
2022/05/08 07:21:10;;;;;;;13.93;9.70;;;24.60;99.90;;;;;;5037379;28;20025;-54
2022/05/08 07:23:35;;;;;;;11.45;8.60;;;24.30;99.90;;;;;;5037286;28;20028;-51
2022/05/08 07:26:01;;;;;;;12.55;8.65;;;23.80;99.90;;;;;;5037171;28;20021;-51
2022/05/08 07:28:28;;;;;;;8.43;6.57;;;24.30;99.90;;;;;;5037372;28;20059;-54
2022/05/08 07:30:53;;;;;;;8.68;7.78;;;24.80;99.90;;;;;;5037165;28;20083;-51
2022/05/08 07:33:19;;;;;;;9.75;7.18;;;24.90;99.90;;;;;;5037841;28;20029;-53
2022/05/08 07:38:31;;;;;;;9.95;7.70;;;25.80;99.90;;;;;;5054684;28;20056;-51
2022/05/08 07:40:57;;;;;;;11.02;7.38;;;25.50;99.90;;;;;;5037195;28;20017;-54
2022/05/08 07:43:26;;;;;;;7.10;5.35;;;25.60;99.90;;;;;;5054734;28;20033;-52
2022/05/08 07:45:51;;;;;;;11.07;8.60;;;26.80;99.90;;;;;;5037569;28;20047;-56
2022/05/08 07:48:17;;;;;;;8.25;6.60;;;27.40;98.20;;;;;;5054464;28;20475;-56
2022/05/08 07:50:47;;;;;;;10.85;7.78;;;27.60;97.60;;;;;;5055112;28;20094;-55
2022/05/08 07:53:13;;;;;;;10.90;7.95;;;28.00;96.30;;;;;;5036266;28;20021;-57
2022/05/08 07:55:40;;;;;;;9.55;7.22;;;27.20;95.80;;;;;;5037448;28;20032;-53
2022/05/08 07:58:06;;;;;;;10.88;7.97;;;26.10;97.60;;;;;;5036523;28;20021;-52
2022/05/08 08:00:31;;;;;;;8.40;6.03;;;26.40;97.00;;;;;;5036427;28;20021;-50
2022/05/08 08:02:57;;;;;;;14.60;5.78;;;27.10;96.50;;;;;;5054679;28;20388;-50
2022/05/08 08:05:23;;;;;;;7.70;6.03;;;28.40;95.40;;;;;;5036424;28;20390;-53
2022/05/08 08:07:49;;;;;;;6.43;4.53;;;29.80;93.00;;;;;;5054207;28;20024;-50
2022/05/08 08:10:15;;;;;;;9.80;7.25;;;30.50;92.10;;;;;;5054715;28;20027;-52
2022/05/08 08:12:41;;;;;;;8.32;7.00;;;30.90;88.70;;;;;;5036233;28;20036;-55
2022/05/08 08:15:14;;;;;;;9.65;8.57;;;28.60;90.70;;;;;;5091763;27;20416;-54
2022/05/08 08:17:39;;;;;;;13.27;8.57;;;25.80;92.30;;;;;;5090503;28;20033;-52
2022/05/08 08:20:06;;;;;;;10.20;6.72;;;24.20;95.20;;;;;;5090715;28;20498;-52
2022/05/08 08:22:33;;;;;;;10.77;6.68;;;23.90;97.70;;;;;;5089549;28;20020;-52
2022/05/08 08:25:00;;;;;;;9.68;7.75;;;24.00;98.20;;;;;;5090772;28;20436;-57
2022/05/08 08:27:26;;;;;;;6.53;4.50;;;25.00;96.90;;;;;;5089460;28;20174;-50
2022/05/08 08:29:54;;;;;;;6.75;4.88;;;25.10;97.20;;;;;;5089951;28;20056;-55
2022/05/08 08:32:21;;;;;;;7.68;5.90;;;25.50;96.80;;;;;;5090863;28;20024;-54
2022/05/08 08:34:47;;;;;;;7.97;7.13;;;26.10;96.30;;;;;;5090482;28;20028;-53
2022/05/08 08:37:13;;;;;;;11.45;6.97;;;26.30;95.20;;;;;;5090430;28;20024;-52
2022/05/08 08:39:39;;;;;;;8.70;6.38;;;26.30;95.20;;;;;;5090380;28;20025;-54
2022/05/08 08:42:18;;;;;;;9.57;6.60;;;26.70;95.10;;;;;;5090471;28;20012;-51
2022/05/08 08:47:50;;;;;;;10.93;6.72;;;26.20;96.00;;;;;;5090383;28;20027;-55
2022/05/08 08:50:17;;;;;;;10.07;6.72;;;26.60;94.90;;;;;;5089067;28;20070;-56
2022/05/08 08:52:44;;;;;;;8.93;5.90;;;27.10;94.20;;;;;;5088971;28;20020;-53
2022/05/08 08:55:09;;;;;;;9.82;6.60;;;27.90;94.70;;;;;;5090132;28;20035;-52
2022/05/08 08:57:36;;;;;;;10.45;6.18;;;28.40;92.00;;;;;;5089263;28;20111;-53
2022/05/08 09:00:06;;;;;;;6.65;5.70;;;29.10;91.20;;;;;;5088790;28;20067;-53
2022/05/08 09:02:32;;;;;;;5.85;5.28;;;28.80;91.20;;;;;;5089449;28;20031;-56
2022/05/08 09:04:58;;;;;;;6.80;5.82;;;29.80;90.40;;;;;;5090100;28;20028;-53
2022/05/08 09:07:38;;;;;;;8.93;6.20;;;30.40;88.60;;;;;;5090229;28;20046;-53
2022/05/08 09:10:20;;;;;;;7.35;6.03;;;30.20;86.20;;;;;;5088642;28;20024;-55
2022/05/08 09:12:52;;;;;;;7.60;5.45;;;29.70;87.90;;;;;;5088576;28;20035;-56
2022/05/08 09:15:26;;;;;;;7.32;5.70;;;30.50;86.60;;;;;;5089169;28;20024;-56
2022/05/08 09:17:57;;;;;;;7.05;5.55;;;30.70;85.50;;;;;;5089995;28;20016;-57
2022/05/08 09:20:30;;;;;;;8.35;5.50;;;30.80;84.80;;;;;;5088401;28;20028;-58
2022/05/08 09:22:59;;;;;;;9.18;5.40;;;31.20;84.00;;;;;;5089068;28;20016;-56
2022/05/08 09:25:43;;;;;;;8.32;5.72;;;30.30;84.20;;;;;;5081555;28;20021;-53
2022/05/08 09:28:10;;;;;;;6.90;4.93;;;31.20;81.70;;;;;;5058201;28;20014;-53
2022/05/08 09:30:35;;;;;;;6.47;5.07;;;31.60;82.50;;;;;;5056238;28;20017;-58
2022/05/08 09:33:02;;;;;;;8.95;6.40;;;32.40;78.50;;;;;;5055880;28;20028;-54
2022/05/08 09:36:22;;;;;;;6.07;4.50;;;31.60;79.30;;;;;;5055820;28;20025;-54
2022/05/08 09:38:52;;;;;;;10.20;6.32;;;31.20;79.10;;;;;;5054797;28;20021;-54
2022/05/08 09:41:22;;;;;;;8.27;5.38;;;30.20;80.40;;;;;;5054624;28;20533;-51
2022/05/08 09:47:10;;;;;;;9.50;5.93;;;29.00;83.30;;;;;;5056044;28;20110;-53
2022/05/08 09:49:36;;;;;;;5.25;4.47;;;29.10;83.10;;;;;;5054683;28;20044;-55
2022/05/08 09:52:02;;;;;;;7.90;5.75;;;30.10;82.30;;;;;;5054464;28;20029;-54
2022/05/08 09:54:29;;;;;;;7.13;5.20;;;29.70;80.90;;;;;;5055554;28;20051;-52
2022/05/08 09:56:55;;;;;;;7.75;5.50;;;29.40;82.30;;;;;;5055551;28;20096;-51
2022/05/08 09:59:30;;;;;;;6.95;4.43;;;29.90;81.10;;;;;;5054138;28;20059;-55
2022/05/08 10:01:55;;;;;;;4.85;4.15;;;30.20;80.10;;;;;;5055494;28;20018;-54
2022/05/08 10:04:21;;;;;;;7.97;4.30;;;30.40;80.20;;;;;;5055143;28;20078;-55
2022/05/08 10:06:47;;;;;;;4.63;4.20;;;30.70;80.00;;;;;;5054328;28;20033;-55
2022/05/08 10:14:49;;;;;;;9.25;5.80;;;31.60;78.10;;;;;;5055039;28;20040;-51
2022/05/08 10:17:15;;;;;;;6.72;5.05;;;30.80;75.30;;;;;;5054860;28;20021;-53
2022/05/08 10:19:41;;;;;;;5.80;4.10;;;28.20;80.40;;;;;;5054191;28;20017;-53
2022/05/08 10:22:09;;;;;;;9.52;6.05;;;27.30;83.80;;;;;;5053785;28;20031;-54
2022/05/08 10:24:51;;;;;;;8.45;6.00;;;27.20;83.40;;;;;;5053812;28;20025;-54
2022/05/08 10:27:25;;;;;;;8.00;5.00;;;27.30;84.10;;;;;;5053675;28;20040;-49
2022/05/08 10:29:50;;;;;;;8.25;5.90;;;26.20;85.10;;;;;;5053910;28;20032;-52
2022/05/08 10:32:28;;;;;;;5.80;5.20;;;25.40;86.80;;;;;;5054840;28;20033;-53
2022/05/08 10:35:17;;;;;;;9.05;5.10;;;24.60;87.50;;;;;;5053863;28;20063;-52
2022/05/08 10:37:47;;;;;;;7.40;4.88;;;24.10;89.60;;;;;;5054413;28;20025;-53
2022/05/08 10:40:21;;;;;;;10.20;5.72;;;23.60;91.10;;;;;;5054650;28;20049;-51
2022/05/08 10:42:48;;;;;;;11.48;6.40;;;23.60;92.00;;;;;;5055187;28;20446;-53
2022/05/08 10:45:32;;;;;;;7.28;5.38;;;23.20;92.10;;;;;;5054918;28;20021;-56
2022/05/08 10:48:07;;;;;;;5.20;4.05;;;22.80;93.40;;;;;;5054555;28;20036;-51
2022/05/08 10:50:32;;;;;;;10.07;5.10;;;23.00;93.90;;;;;;5053778;28;20040;-56
2022/05/08 10:52:58;;;;;;;9.65;4.95;;;23.60;93.40;;;;;;5054418;28;20021;-52
2022/05/08 10:55:25;;;;;;;8.30;5.28;;;23.90;92.60;;;;;;5054446;28;20071;-55
2022/05/08 10:58:00;;;;;;;9.88;5.30;;;23.40;93.30;;;;;;5054569;28;20016;-53
2022/05/08 11:00:30;;;;;;;10.88;4.45;;;23.00;93.80;;;;;;5053151;28;20021;-54
2022/05/08 11:02:56;;;;;;;7.50;5.15;;;23.70;93.50;;;;;;5052991;28;20017;-51
2022/05/08 11:05:31;;;;;;;14.15;5.18;;;23.10;93.40;;;;;;5053453;28;20103;-52
2022/05/08 11:08:03;;;;;;;8.70;4.93;;;23.10;94.60;;;;;;5053679;28;20082;-49
2022/05/08 11:10:30;;;;;;;10.43;5.72;;;23.20;94.10;;;;;;5053957;28;20017;-50
2022/05/08 11:13:04;;;;;;;10.48;4.50;;;22.20;94.60;;;;;;5052694;28;20036;-49
2022/05/08 11:15:35;;;;;;;11.30;4.78;;;22.40;95.20;;;;;;5052751;28;20092;-50
2022/05/08 11:18:12;;;;;;;7.95;5.30;;;23.10;94.70;;;;;;5052738;28;20027;-50
2022/05/08 11:20:50;;;;;;;8.20;5.07;;;22.40;94.80;;;;;;5053884;28;20501;-51
2022/05/08 11:23:21;;;;;;;6.90;4.65;;;22.00;95.80;;;;;;5053546;28;20074;-49
2022/05/08 11:26:11;;;;;;;7.00;4.45;;;21.90;96.60;;;;;;5054300;28;20041;-50
2022/05/08 11:28:47;;;;;;;11.73;4.13;;;22.30;96.40;;;;;;5052530;28;20476;-49
2022/05/08 11:31:15;;;;;;;8.15;4.45;;;22.00;96.80;;;;;;5053454;28;20124;-50
2022/05/08 11:36:27;;;;;;;7.30;4.68;;;22.00;96.90;;;;;;5054202;28;20063;-50
2022/05/08 11:39:01;;;;;;;8.13;4.05;;;21.60;96.50;;;;;;5053599;28;20028;-47
2022/05/08 11:41:32;;;;;;;9.60;4.30;;;21.70;97.00;;;;;;5053973;28;20027;-48
2022/05/08 11:44:02;;;;;;;10.48;4.35;;;22.00;96.80;;;;;;5052388;28;20021;-50
2022/05/08 11:46:34;;;;;;;12.98;4.30;;;22.20;96.60;;;;;;5052198;28;20028;-51
2022/05/08 11:49:00;;;;;;;7.90;4.18;;;22.00;96.70;;;;;;5051878;28;20029;-51
2022/05/08 11:51:38;;;;;;;8.25;4.18;;;22.10;96.30;;;;;;5053493;28;20029;-47
2022/05/08 11:54:04;;;;;;;12.40;4.72;;;22.00;97.10;;;;;;5052478;28;20029;-53
2022/05/08 11:56:32;;;;;;;8.07;4.75;;;22.20;96.90;;;;;;5053426;28;20024;-52
2022/05/08 11:59:00;;;;;;;7.80;3.97;;;22.00;96.30;;;;;;5053367;28;20083;-51
2022/05/08 12:01:27;;;;;;;12.15;5.13;;;21.80;97.70;;;;;;5052159;28;20120;-51
2022/05/08 12:03:53;;;;;;;9.90;5.70;;;21.80;97.10;;;;;;5053292;28;20488;-49
2022/05/08 12:06:21;;;;;;;8.75;5.50;;;21.50;98.50;;;;;;5053263;28;20021;-52
2022/05/08 12:08:46;;;;;;;6.93;4.93;;;21.40;99.20;;;;;;5052020;28;20054;-50
2022/05/08 12:11:37;;;;;;;8.38;4.32;;;21.30;97.60;;;;;;5052775;28;20112;-50
2022/05/08 12:14:05;;;;;;;6.18;4.38;;;21.40;98.20;;;;;;5051851;28;20052;-54
2022/05/08 12:16:32;;;;;;;12.60;5.22;;;21.90;98.50;;;;;;5052165;28;20034;-53
2022/05/08 12:19:13;;;;;;;8.40;4.35;;;21.50;98.50;;;;;;5051652;28;20025;-49
2022/05/08 12:21:39;;;;;;;7.90;5.07;;;21.30;98.80;;;;;;5051933;28;20025;-50
2022/05/08 12:24:17;;;;;;;7.82;4.80;;;21.30;99.30;;;;;;5052040;28;20056;-49
2022/05/08 12:26:43;;;;;;;9.50;4.75;;;21.50;98.70;;;;;;5053229;28;20021;-49
2022/05/08 12:29:20;;;;;;;6.70;4.10;;;21.30;98.40;;;;;;5052065;28;20021;-51
2022/05/08 12:31:46;;;;;;;8.13;4.68;;;21.30;99.10;;;;;;5051871;28;20037;-54
2022/05/08 12:34:13;;;;;;;7.18;4.40;;;20.90;99.10;;;;;;5051711;28;20029;-50
2022/05/08 12:36:41;;;;;;;8.50;4.43;;;20.80;99.30;;;;;;5052945;28;20024;-53
2022/05/08 12:39:09;;;;;;;9.02;4.63;;;20.60;99.90;;;;;;5052056;28;20025;-48
2022/05/08 12:41:35;;;;;;;7.70;3.97;;;20.70;99.70;;;;;;5052093;28;20025;-51
2022/05/08 12:44:01;;;;;;;5.22;3.83;;;20.70;99.90;;;;;;5051828;28;20063;-52
2022/05/08 12:46:27;;;;;;;8.48;4.57;;;20.80;99.90;;;;;;5052916;28;20055;-51
2022/05/08 12:48:53;;;;;;;7.45;4.65;;;20.80;99.90;;;;;;5052785;28;20143;-52
2022/05/08 12:51:19;;;;;;;6.60;4.47;;;20.50;99.90;;;;;;5051572;28;20040;-50
2022/05/08 12:53:44;;;;;;;6.45;4.00;;;20.40;99.90;;;;;;5052773;28;20031;-51
2022/05/08 12:56:10;;;;;;;8.98;5.30;;;20.40;99.90;;;;;;5052813;28;20048;-54
2022/05/08 13:01:20;;;;;;;9.82;4.35;;;20.10;99.90;;;;;;5055557;28;20024;-50
2022/05/08 13:03:46;;;;;;;6.63;3.33;;;20.30;99.90;;;;;;5056426;28;20025;-50
2022/05/08 13:06:11;;;;;;;7.53;4.15;;;20.50;99.90;;;;;;5055545;28;20032;-54
2022/05/08 13:08:37;;;;;;;9.15;4.60;;;20.90;99.90;;;;;;5055154;28;20055;-51
2022/05/08 13:11:02;;;;;;;7.55;3.63;;;21.00;99.90;;;;;;5055577;28;20032;-52
2022/05/08 13:13:31;;;;;;;8.93;4.50;;;21.10;99.90;;;;;;5054976;28;20033;-55
2022/05/08 13:15:57;;;;;;;7.78;5.13;;;21.10;99.90;;;;;;5056383;28;20027;-54
2022/05/08 13:18:23;;;;;;;6.88;4.03;;;21.00;99.90;;;;;;5055801;28;20025;-58
2022/05/08 13:20:49;;;;;;;10.05;4.28;;;20.80;99.90;;;;;;5055556;28;20029;-54